createdAt,value
2019-03-16T00:01:56.674Z,6.10
2019-03-16T00:04:16.778Z,5.60
2019-03-16T00:06:45.325Z,10.93
2019-03-16T00:09:13.585Z,8.47
2019-03-16T00:11:41.890Z,6.77
2019-03-16T00:14:10.189Z,4.77
2019-03-16T00:16:38.446Z,6.43
2019-03-16T00:19:06.697Z,4.60
2019-03-16T00:21:34.967Z,5.67
2019-03-16T00:24:03.213Z,6.50
2019-03-16T00:26:32.141Z,4.50
2019-03-16T00:29:00.450Z,7.97
2019-03-16T00:31:28.714Z,5.77
2019-03-16T00:33:56.965Z,6.33
2019-03-16T00:36:25.238Z,7.60
2019-03-16T00:38:53.486Z,6.10
2019-03-16T00:41:21.759Z,6.43
2019-03-16T00:43:50.006Z,8.57
2019-03-16T00:46:18.271Z,7.60
2019-03-16T00:48:46.821Z,6.30
2019-03-16T00:51:15.098Z,4.87
2019-03-16T00:53:43.354Z,3.53
2019-03-16T00:56:11.618Z,5.87
2019-03-16T00:58:39.873Z,4.83
2019-03-16T01:01:08.218Z,5.57
2019-03-16T01:03:36.474Z,5.03
2019-03-16T01:06:04.786Z,3.70
2019-03-16T01:08:33.053Z,7.70
2019-03-16T01:11:01.313Z,3.57
2019-03-16T01:13:29.883Z,4.43
2019-03-16T01:15:58.152Z,3.23
2019-03-16T01:18:26.484Z,6.77
2019-03-16T01:20:54.757Z,3.73
2019-03-16T01:23:23.026Z,3.00
2019-03-16T01:25:51.273Z,4.30
2019-03-16T01:28:19.543Z,6.50
2019-03-16T01:30:47.795Z,3.87
2019-03-16T01:33:16.058Z,3.37
2019-03-16T01:35:44.309Z,3.60
2019-03-16T01:38:12.572Z,2.60
2019-03-16T01:40:40.827Z,4.43
2019-03-16T01:43:09.094Z,4.53
2019-03-16T01:45:37.346Z,3.83
2019-03-16T01:48:05.625Z,2.47
2019-03-16T01:50:33.866Z,3.73
2019-03-16T01:53:02.125Z,4.40
2019-03-16T01:55:30.471Z,2.80
2019-03-16T01:57:58.823Z,2.97
2019-03-16T02:00:27.074Z,3.37
2019-03-16T02:02:56.012Z,5.07
2019-03-16T02:05:24.461Z,3.37
2019-03-16T02:07:52.745Z,3.30
2019-03-16T02:10:20.998Z,8.83
2019-03-16T02:12:49.511Z,5.70
2019-03-16T02:15:17.768Z,4.57
2019-03-16T02:17:46.036Z,1.77
2019-03-16T02:20:14.311Z,4.37
2019-03-16T02:22:42.625Z,3.40
2019-03-16T02:25:10.885Z,3.83
2019-03-16T02:27:39.146Z,2.50
2019-03-16T02:30:10.043Z,3.13
2019-03-16T02:32:38.307Z,4.13
2019-03-16T02:35:07.497Z,5.07
2019-03-16T02:37:35.771Z,2.97
2019-03-16T02:40:05.476Z,3.53
2019-03-16T02:42:33.743Z,1.83
2019-03-16T02:45:01.992Z,2.00
2019-03-16T02:47:30.282Z,2.83
2019-03-16T02:49:58.587Z,2.10
2019-03-16T02:52:27.135Z,2.00
2019-03-16T02:54:55.385Z,2.07
2019-03-16T02:57:23.662Z,1.33
2019-03-16T02:59:51.914Z,2.07
2019-03-16T03:02:20.195Z,2.07
2019-03-16T03:04:48.456Z,1.83
2019-03-16T03:07:16.716Z,2.03
2019-03-16T03:09:44.974Z,2.63
2019-03-16T03:12:13.226Z,3.00
2019-03-16T03:14:41.506Z,3.27
2019-03-16T03:17:09.754Z,4.87
2019-03-16T03:19:38.025Z,2.37
2019-03-16T03:22:06.348Z,3.30
2019-03-16T03:24:34.602Z,3.53
2019-03-16T03:27:02.854Z,3.03
2019-03-16T03:29:31.127Z,3.30
2019-03-16T03:31:59.398Z,2.07
2019-03-16T03:34:27.731Z,3.23
2019-03-16T03:36:55.989Z,3.80
2019-03-16T03:39:24.254Z,3.57
2019-03-16T03:41:52.514Z,2.60
2019-03-16T03:44:20.778Z,1.60
2019-03-16T03:46:49.032Z,1.77
2019-03-16T03:49:17.299Z,2.17
2019-03-16T03:51:45.555Z,1.63
2019-03-16T03:54:13.847Z,2.60
2019-03-16T03:56:42.171Z,2.63
2019-03-16T03:59:10.531Z,1.73
2019-03-16T04:01:38.774Z,2.40
2019-03-16T04:04:14.967Z,4.70
2019-03-16T04:06:37.038Z,2.00
2019-03-16T04:09:07.550Z,2.93
2019-03-16T04:11:35.826Z,2.37
2019-03-16T04:14:04.102Z,2.40
2019-03-16T04:16:32.350Z,2.50
2019-03-16T04:19:00.617Z,1.90
2019-03-16T04:21:28.870Z,2.50
2019-03-16T04:23:57.130Z,3.00
2019-03-16T04:26:25.382Z,3.80
2019-03-16T04:28:53.661Z,2.57
2019-03-16T04:31:21.919Z,3.53
2019-03-16T04:33:50.186Z,2.73
2019-03-16T04:36:18.481Z,2.43
2019-03-16T04:38:46.789Z,1.33
2019-03-16T04:41:15.094Z,1.80
2019-03-16T04:43:43.362Z,2.37
2019-03-16T04:46:11.642Z,2.27
2019-03-16T04:48:39.898Z,1.87
2019-03-16T04:51:08.150Z,1.37
2019-03-16T04:53:55.845Z,1.23
2019-03-16T04:56:24.106Z,2.30
2019-03-16T04:58:52.368Z,2.17
2019-03-16T05:01:20.618Z,2.73
2019-03-16T05:03:48.904Z,1.80
2019-03-16T05:06:17.150Z,2.40
2019-03-16T05:08:45.424Z,2.03
2019-03-16T05:11:13.710Z,2.70
2019-03-16T05:13:41.965Z,2.13
2019-03-16T05:16:10.257Z,3.07
2019-03-16T05:18:38.514Z,1.70
2019-03-16T05:21:06.798Z,2.10
2019-03-16T05:23:35.078Z,1.50
2019-03-16T05:26:03.353Z,2.20
2019-03-16T05:28:31.626Z,1.67
2019-03-16T05:30:59.886Z,2.07
2019-03-16T05:33:28.139Z,1.23
2019-03-16T05:35:56.407Z,1.27
2019-03-16T05:38:24.659Z,2.13
2019-03-16T05:40:53.205Z,3.13
2019-03-16T05:43:21.521Z,2.03
2019-03-16T05:45:49.786Z,2.83
2019-03-16T05:48:18.036Z,1.10
2019-03-16T05:50:46.298Z,1.47
2019-03-16T05:53:14.549Z,1.27
2019-03-16T05:55:42.819Z,2.53
2019-03-16T05:58:11.156Z,1.63
2019-03-16T06:00:39.422Z,2.27
2019-03-16T06:03:07.674Z,2.30
2019-03-16T06:05:35.961Z,1.80
2019-03-16T06:08:04.210Z,1.63
2019-03-16T06:10:32.483Z,2.50
2019-03-16T06:13:00.729Z,2.93
2019-03-16T06:15:29.116Z,1.60
2019-03-16T06:17:57.453Z,2.13
2019-03-16T06:20:25.801Z,3.47
2019-03-16T06:22:54.067Z,2.40
2019-03-16T06:25:22.385Z,2.17
2019-03-16T06:27:50.646Z,2.27
2019-03-16T06:30:20.839Z,4.83
2019-03-16T06:32:48.877Z,2.10
2019-03-16T06:35:24.557Z,3.00
2019-03-16T06:37:47.192Z,4.00
2019-03-16T06:40:15.453Z,2.40
2019-03-16T06:42:43.705Z,3.73
2019-03-16T06:45:12.150Z,3.40
2019-03-16T06:47:40.405Z,2.20
2019-03-16T06:50:15.363Z,3.13
2019-03-16T06:52:43.618Z,2.83
2019-03-16T06:55:11.882Z,2.03
2019-03-16T06:57:40.144Z,2.80
2019-03-16T07:00:11.662Z,2.17
2019-03-16T07:02:39.915Z,1.70
2019-03-16T07:05:10.622Z,3.23
2019-03-16T07:07:38.866Z,3.17
2019-03-16T07:10:11.952Z,1.50
2019-03-16T07:12:40.202Z,3.93
2019-03-16T07:15:10.880Z,2.53
2019-03-16T07:17:39.133Z,2.30
2019-03-16T07:20:12.471Z,2.60
2019-03-16T07:22:40.734Z,2.30
2019-03-16T07:25:09.013Z,3.97
2019-03-16T07:27:37.268Z,2.50
2019-03-16T07:30:08.365Z,2.53
2019-03-16T07:32:36.653Z,2.37
2019-03-16T07:35:06.233Z,2.67
2019-03-16T07:37:34.517Z,1.73
2019-03-16T07:40:03.739Z,2.33
2019-03-16T07:42:32.022Z,1.90
2019-03-16T07:45:08.228Z,1.73
2019-03-16T07:47:30.266Z,3.63
2019-03-16T07:49:58.518Z,2.83
2019-03-16T07:52:26.802Z,3.47
2019-03-16T07:54:55.050Z,1.60
2019-03-16T07:57:23.315Z,4.20
2019-03-16T07:59:51.572Z,1.67
2019-03-16T08:02:19.830Z,2.10
2019-03-16T08:04:48.082Z,3.80
2019-03-16T08:07:17.233Z,2.53
2019-03-16T08:09:45.482Z,4.00
2019-03-16T08:12:13.769Z,3.13
2019-03-16T08:14:42.019Z,5.00
2019-03-16T08:17:10.304Z,8.43
2019-03-16T08:19:38.549Z,7.93
2019-03-16T08:22:06.815Z,5.40
2019-03-16T08:24:35.070Z,11.43
2019-03-16T08:27:03.441Z,10.60
2019-03-16T08:29:31.689Z,7.77
2019-03-16T08:31:59.978Z,14.80
2019-03-16T08:34:28.227Z,9.97
2019-03-16T08:36:56.517Z,20.37
2019-03-16T08:39:24.800Z,14.23
2019-03-16T08:41:53.084Z,11.10
2019-03-16T08:44:21.329Z,13.60
2019-03-16T08:46:49.597Z,10.37
2019-03-16T08:49:17.873Z,11.67
2019-03-16T08:51:46.135Z,9.10
2019-03-16T08:54:14.408Z,7.63
2019-03-16T08:56:42.670Z,7.10
2019-03-16T08:59:10.926Z,7.57
2019-03-16T09:01:39.191Z,8.80
2019-03-16T09:04:07.466Z,6.27
2019-03-16T09:06:35.726Z,8.40
2019-03-16T09:09:05.146Z,9.13
2019-03-16T09:11:33.409Z,6.30
2019-03-16T09:14:01.657Z,5.97
2019-03-16T09:16:29.947Z,8.87
2019-03-16T09:18:58.194Z,5.90
2019-03-16T09:21:26.494Z,10.03
2019-03-16T09:23:54.758Z,6.37
2019-03-16T09:26:23.102Z,17.93
2019-03-16T09:28:59.931Z,8.50
2019-03-16T09:31:21.338Z,5.17
2019-03-16T09:33:49.613Z,10.17
2019-03-16T09:36:17.858Z,6.73
2019-03-16T09:38:46.146Z,13.30
2019-03-16T09:41:14.408Z,9.07
2019-03-16T09:43:42.686Z,5.60
2019-03-16T09:46:10.929Z,7.30
2019-03-16T09:48:39.197Z,9.37
2019-03-16T09:51:07.445Z,7.07
2019-03-16T09:53:35.714Z,5.10
2019-03-16T09:56:03.969Z,4.87
2019-03-16T09:58:32.238Z,5.37
2019-03-16T10:01:00.809Z,7.47
2019-03-16T10:03:29.148Z,16.23
2019-03-16T10:05:57.419Z,11.20
2019-03-16T10:08:25.778Z,23.20
2019-03-16T10:10:54.055Z,8.47
2019-03-16T10:13:22.326Z,15.43
2019-03-16T10:15:51.052Z,12.40
2019-03-16T10:18:19.322Z,12.23
2019-03-16T10:20:47.586Z,13.47
2019-03-16T10:23:15.854Z,15.67
2019-03-16T10:25:44.133Z,21.87
2019-03-16T10:28:12.397Z,26.30
2019-03-16T10:30:40.653Z,20.93
2019-03-16T10:33:11.121Z,19.30
2019-03-16T10:35:38.929Z,14.83
2019-03-16T10:38:07.204Z,15.37
2019-03-16T10:40:35.463Z,17.57
2019-03-16T10:43:03.725Z,14.60
2019-03-16T10:45:32.021Z,11.13
2019-03-16T10:48:00.298Z,14.07
2019-03-16T10:50:28.573Z,11.73
2019-03-16T10:52:56.838Z,9.90
2019-03-16T10:55:25.133Z,11.47
2019-03-16T10:57:53.433Z,12.37
2019-03-16T11:00:21.759Z,11.37
2019-03-16T11:02:50.018Z,11.93
2019-03-16T11:05:18.321Z,10.50
2019-03-16T11:07:46.592Z,10.17
2019-03-16T11:10:15.013Z,8.20
2019-03-16T11:12:43.306Z,9.93
2019-03-16T11:15:12.420Z,7.73
2019-03-16T11:17:40.773Z,5.97
2019-03-16T11:20:14.399Z,5.63
2019-03-16T11:22:42.702Z,6.93
2019-03-16T11:25:11.018Z,5.40
2019-03-16T11:27:39.327Z,10.90
2019-03-16T11:30:10.929Z,8.90
2019-03-16T11:32:39.199Z,6.60
2019-03-16T11:35:09.522Z,6.47
2019-03-16T11:37:37.835Z,8.23
2019-03-16T11:40:12.011Z,9.67
2019-03-16T11:42:40.270Z,9.70
2019-03-16T11:45:10.492Z,7.67
2019-03-16T11:47:38.764Z,8.97
2019-03-16T11:50:09.254Z,6.67
2019-03-16T11:52:37.498Z,3.50
2019-03-16T11:55:10.175Z,6.10
2019-03-16T11:57:38.426Z,6.03
2019-03-16T12:00:14.561Z,7.20
2019-03-16T12:02:42.817Z,8.33
2019-03-16T12:05:11.718Z,5.00
2019-03-16T12:07:39.974Z,4.17
2019-03-16T12:10:10.639Z,5.03
2019-03-16T12:12:38.889Z,5.73
2019-03-16T12:15:09.377Z,4.77
2019-03-16T12:17:37.621Z,9.53
2019-03-16T12:20:11.119Z,7.70
2019-03-16T12:22:39.366Z,4.93
2019-03-16T12:25:07.962Z,4.23
2019-03-16T12:27:36.218Z,7.77
2019-03-16T12:30:07.241Z,5.93
2019-03-16T12:32:35.489Z,7.37
2019-03-16T12:35:05.607Z,4.47
2019-03-16T12:37:33.861Z,6.40
2019-03-16T12:40:02.138Z,3.03
2019-03-16T12:42:30.405Z,4.47
2019-03-16T12:44:58.693Z,5.27
2019-03-16T12:47:26.969Z,9.17
2019-03-16T12:49:55.229Z,5.90
2019-03-16T12:52:23.484Z,3.03
2019-03-16T12:54:51.953Z,6.03
2019-03-16T12:57:20.217Z,4.77
2019-03-16T12:59:48.509Z,5.20
2019-03-16T13:02:16.773Z,3.00
2019-03-16T13:04:45.062Z,4.27
2019-03-16T13:07:13.378Z,4.30
2019-03-16T13:09:42.445Z,7.20
2019-03-16T13:12:10.977Z,4.73
2019-03-16T13:14:39.242Z,7.93
2019-03-16T13:17:07.494Z,7.37
2019-03-16T13:19:35.779Z,7.83
2019-03-16T13:22:04.028Z,6.53
2019-03-16T13:24:32.313Z,4.23
2019-03-16T13:27:00.562Z,4.23
2019-03-16T13:29:28.932Z,7.60
2019-03-16T13:31:57.198Z,5.97
2019-03-16T13:34:25.502Z,7.80
2019-03-16T13:36:53.758Z,7.07
2019-03-16T13:39:22.797Z,6.17
2019-03-16T13:41:51.174Z,6.87
2019-03-16T13:44:19.440Z,7.13
2019-03-16T13:46:47.693Z,12.27
2019-03-16T13:49:15.999Z,12.60
2019-03-16T13:51:44.259Z,17.47
2019-03-16T13:54:12.524Z,9.53
2019-03-16T13:56:40.778Z,8.10
2019-03-16T13:59:09.069Z,8.97
2019-03-16T14:01:37.729Z,11.27
2019-03-16T14:04:06.018Z,8.70
2019-03-16T14:06:34.301Z,6.47
2019-03-16T14:09:02.926Z,12.07
2019-03-16T14:11:31.192Z,7.40
2019-03-16T14:13:59.443Z,5.90
2019-03-16T14:16:27.810Z,8.90
2019-03-16T14:18:56.338Z,7.70
2019-03-16T14:21:24.625Z,7.33
2019-03-16T14:23:52.875Z,9.73
2019-03-16T14:26:21.325Z,7.37
2019-03-16T14:28:49.578Z,8.00
2019-03-16T14:31:17.871Z,5.47
2019-03-16T14:33:46.197Z,7.07
2019-03-16T14:36:14.585Z,8.03
2019-03-16T14:38:43.314Z,6.27
2019-03-16T14:41:11.593Z,9.80
2019-03-16T14:43:39.922Z,5.70
2019-03-16T14:46:08.555Z,5.57
2019-03-16T14:48:36.802Z,6.13
2019-03-16T14:51:05.113Z,10.63
2019-03-16T14:53:33.361Z,6.23
2019-03-16T14:56:01.628Z,3.93
2019-03-16T14:58:29.883Z,7.00
2019-03-16T15:00:58.147Z,9.70
2019-03-16T15:03:26.406Z,5.67
2019-03-16T15:05:54.665Z,14.30
2019-03-16T15:08:22.923Z,6.50
2019-03-16T15:10:51.207Z,10.10
2019-03-16T15:13:19.466Z,10.53
2019-03-16T15:15:47.729Z,11.90
2019-03-16T15:18:15.990Z,10.83
2019-03-16T15:20:44.253Z,8.57
2019-03-16T15:23:12.517Z,9.93
2019-03-16T15:25:40.778Z,6.90
2019-03-16T15:28:09.031Z,8.47
2019-03-16T15:30:49.742Z,8.57
2019-03-16T15:33:07.289Z,5.10
2019-03-16T15:35:35.593Z,12.53
2019-03-16T15:38:03.885Z,11.43
2019-03-16T15:40:32.178Z,8.60
2019-03-16T15:43:00.430Z,6.90
2019-03-16T15:45:32.154Z,8.80
2019-03-16T15:48:00.415Z,11.33
2019-03-16T15:50:28.682Z,8.10
2019-03-16T15:52:56.941Z,8.23
2019-03-16T15:55:25.222Z,7.87
2019-03-16T15:57:53.471Z,6.23
2019-03-16T16:00:21.782Z,10.07
2019-03-16T16:02:50.070Z,6.33
2019-03-16T16:05:18.389Z,7.17
2019-03-16T16:07:46.717Z,8.97
2019-03-16T16:10:16.210Z,6.70
2019-03-16T16:12:44.477Z,6.30
2019-03-16T16:15:12.740Z,9.70
2019-03-16T16:17:41.035Z,26.57
2019-03-16T16:20:14.117Z,13.33
2019-03-16T16:22:42.382Z,24.10
2019-03-16T16:25:11.536Z,10.47
2019-03-16T16:27:39.799Z,40.50
2019-03-16T16:30:15.776Z,34.73
2019-03-16T16:32:44.044Z,23.47
2019-03-16T16:35:13.370Z,17.87
2019-03-16T16:37:41.633Z,17.70
2019-03-16T16:40:14.854Z,14.23
2019-03-16T16:42:43.130Z,21.37
2019-03-16T16:45:12.834Z,21.70
2019-03-16T16:47:41.102Z,9.97
2019-03-16T16:50:23.553Z,10.93
2019-03-16T16:52:51.882Z,13.43
2019-03-16T16:55:20.153Z,12.20
2019-03-16T16:57:48.412Z,15.03
2019-03-16T17:00:21.341Z,13.40
2019-03-16T17:02:49.613Z,7.87
2019-03-16T17:05:17.885Z,9.60
2019-03-16T17:07:46.149Z,15.93
2019-03-16T17:10:15.249Z,11.07
2019-03-16T17:12:44.049Z,15.07
2019-03-16T17:15:13.961Z,8.00
2019-03-16T17:17:42.221Z,10.97
2019-03-16T17:20:15.397Z,7.80
2019-03-16T17:22:43.657Z,14.00
2019-03-16T17:25:12.989Z,10.10
2019-03-16T17:27:41.254Z,9.27
2019-03-16T17:30:18.074Z,12.33
2019-03-16T17:32:46.487Z,7.07
2019-03-16T17:35:14.735Z,9.90
2019-03-16T17:37:42.997Z,11.40
2019-03-16T17:40:15.129Z,10.23
2019-03-16T17:42:43.423Z,11.10
2019-03-16T17:45:12.738Z,6.37
2019-03-16T17:47:41.059Z,8.87
2019-03-16T17:50:13.750Z,11.87
2019-03-16T17:52:42.046Z,13.90
2019-03-16T17:55:13.858Z,8.83
2019-03-16T17:57:45.029Z,8.40
2019-03-16T18:00:13.770Z,14.37
2019-03-16T18:02:51.415Z,7.77
2019-03-16T18:05:12.019Z,9.77
2019-03-16T18:07:40.322Z,14.73
2019-03-16T18:10:09.922Z,11.20
2019-03-16T18:12:38.192Z,10.40
2019-03-16T18:15:15.594Z,7.77
2019-03-16T18:17:43.873Z,9.33
2019-03-16T18:20:17.647Z,9.97
2019-03-16T18:22:46.913Z,12.97
2019-03-16T18:25:15.234Z,14.87
2019-03-16T18:27:43.501Z,12.67
2019-03-16T18:30:23.661Z,8.53
2019-03-16T18:32:51.934Z,10.00
2019-03-16T18:35:20.193Z,10.30
2019-03-16T18:37:48.488Z,8.00
2019-03-16T18:40:16.824Z,10.17
2019-03-16T18:42:45.098Z,12.30
2019-03-16T18:45:22.147Z,10.80
2019-03-16T18:47:50.437Z,12.37
2019-03-16T18:50:18.686Z,14.47
2019-03-16T18:52:46.957Z,14.97
2019-03-16T18:55:15.241Z,14.07
2019-03-16T18:57:43.498Z,12.43
2019-03-16T19:00:19.504Z,12.73
2019-03-16T19:02:47.766Z,12.60
2019-03-16T19:05:16.018Z,12.37
2019-03-16T19:07:44.294Z,15.67
2019-03-16T19:10:17.187Z,9.93
2019-03-16T19:12:45.545Z,11.27
2019-03-16T19:15:17.578Z,7.27
2019-03-16T19:17:58.246Z,12.83
2019-03-16T19:20:16.673Z,14.40
2019-03-16T19:22:44.957Z,14.07
2019-03-16T19:25:18.602Z,19.37
2019-03-16T19:27:46.858Z,12.03
2019-03-16T19:30:15.871Z,12.33
2019-03-16T19:32:44.118Z,8.43
2019-03-16T19:35:12.554Z,8.63
2019-03-16T19:37:41.005Z,15.48
2019-03-16T19:40:12.166Z,12.43
2019-03-16T19:42:40.476Z,9.13
2019-03-16T19:45:10.530Z,7.57
2019-03-16T19:47:38.777Z,5.50
2019-03-16T19:50:14.240Z,5.87
2019-03-16T19:52:42.518Z,3.80
2019-03-16T19:55:11.730Z,6.80
2019-03-16T19:57:39.979Z,7.27
2019-03-16T20:00:15.282Z,7.00
2019-03-16T20:02:50.286Z,4.67
2019-03-16T20:05:13.842Z,4.17
2019-03-16T20:07:42.144Z,2.20
2019-03-16T20:10:13.677Z,4.03
2019-03-16T20:12:41.942Z,5.93
2019-03-16T20:15:11.734Z,10.00
2019-03-16T20:17:39.994Z,4.50
2019-03-16T20:20:17.478Z,6.00
2019-03-16T20:22:45.761Z,7.33
2019-03-16T20:25:14.025Z,4.23
2019-03-16T20:27:42.307Z,5.50
2019-03-16T20:30:12.433Z,5.90
2019-03-16T20:32:40.683Z,8.13
2019-03-16T20:35:09.513Z,9.17
2019-03-16T20:37:37.762Z,7.63
2019-03-16T20:40:13.883Z,9.63
2019-03-16T20:42:42.150Z,10.90
2019-03-16T20:45:10.802Z,7.10
2019-03-16T20:47:39.213Z,8.37
2019-03-16T20:50:15.158Z,5.87
2019-03-16T20:52:43.435Z,6.00
2019-03-16T20:55:11.689Z,10.87
2019-03-16T20:57:39.956Z,8.47
2019-03-16T21:00:18.576Z,11.13
2019-03-16T21:02:47.178Z,11.97
2019-03-16T21:05:15.765Z,8.00
2019-03-16T21:07:44.037Z,5.47
2019-03-16T21:10:13.038Z,4.30
2019-03-16T21:12:41.292Z,5.20
2019-03-16T21:15:11.418Z,12.30
2019-03-16T21:17:39.666Z,8.03
2019-03-16T21:20:18.072Z,9.13
2019-03-16T21:22:46.415Z,8.43
2019-03-16T21:25:15.560Z,10.83
2019-03-16T21:27:43.813Z,9.70
2019-03-16T21:30:18.035Z,7.80
2019-03-16T21:32:46.292Z,9.00
2019-03-16T21:35:14.554Z,8.10
2019-03-16T21:37:42.802Z,6.83
2019-03-16T21:40:13.091Z,6.67
2019-03-16T21:42:41.340Z,8.30
2019-03-16T21:45:10.882Z,6.07
2019-03-16T21:47:39.173Z,7.17
2019-03-16T21:50:12.130Z,4.90
2019-03-16T21:52:40.416Z,6.70
2019-03-16T21:55:09.985Z,12.37
2019-03-16T21:57:38.248Z,5.30
2019-03-16T22:00:12.617Z,4.60
2019-03-16T22:02:40.866Z,6.53
2019-03-16T22:05:09.798Z,6.17
2019-03-16T22:07:38.129Z,9.50
2019-03-16T22:10:09.134Z,4.97
2019-03-16T22:12:37.405Z,5.43
2019-03-16T22:15:08.509Z,7.50
2019-03-16T22:17:36.769Z,4.83
2019-03-16T22:20:10.566Z,7.13
2019-03-16T22:22:38.817Z,5.07
2019-03-16T22:25:07.853Z,5.63
2019-03-16T22:27:36.106Z,6.93
2019-03-16T22:30:07.013Z,7.43
2019-03-16T22:32:35.266Z,3.87
2019-03-16T22:35:04.045Z,7.73
2019-03-16T22:37:32.354Z,7.53
2019-03-16T22:40:00.617Z,5.53
2019-03-16T22:42:28.873Z,6.80
2019-03-16T22:44:57.146Z,5.53
2019-03-16T22:47:25.414Z,4.43
2019-03-16T22:49:53.670Z,10.87
2019-03-16T22:52:21.934Z,7.07
2019-03-16T22:54:50.186Z,6.33
2019-03-16T22:57:18.458Z,6.50
2019-03-16T22:59:46.715Z,4.83
2019-03-16T23:02:14.981Z,7.20
2019-03-16T23:04:43.243Z,6.23
2019-03-16T23:07:11.525Z,3.70
2019-03-16T23:09:39.787Z,6.37
2019-03-16T23:12:08.058Z,5.83
2019-03-16T23:14:36.303Z,5.27
2019-03-16T23:17:04.593Z,7.73
2019-03-16T23:19:32.863Z,7.17
2019-03-16T23:22:01.194Z,5.30
2019-03-16T23:24:29.445Z,6.77
2019-03-16T23:26:57.729Z,4.77
2019-03-16T23:29:26.237Z,6.83
2019-03-16T23:31:54.502Z,5.37
2019-03-16T23:34:22.754Z,8.07
2019-03-16T23:36:51.018Z,3.30
2019-03-16T23:39:19.275Z,7.07
2019-03-16T23:41:47.561Z,5.77
2019-03-16T23:44:15.829Z,6.20
2019-03-16T23:46:44.090Z,3.63
2019-03-16T23:49:12.345Z,2.13
2019-03-16T23:51:40.620Z,6.07
2019-03-16T23:54:08.874Z,4.20
2019-03-16T23:56:37.150Z,3.40
2019-03-16T23:59:05.405Z,4.30
